createdAt,value
2023-03-22T00:03:59.712Z,6.09
2023-03-22T00:09:01.098Z,6.02
2023-03-22T00:14:02.101Z,5.92
2023-03-22T00:19:02.900Z,5.91
2023-03-22T00:24:03.907Z,5.73
2023-03-22T00:29:04.872Z,5.87
2023-03-22T00:34:05.752Z,5.77
2023-03-22T00:39:06.644Z,5.79
2023-03-22T00:44:07.973Z,5.80
2023-03-22T00:49:08.965Z,5.77
2023-03-22T00:54:09.805Z,5.73
2023-03-22T00:59:11.949Z,5.81
2023-03-22T01:04:17.184Z,5.71
2023-03-22T01:09:23.086Z,5.81
2023-03-22T01:14:25.353Z,5.82
2023-03-22T01:19:26.862Z,5.65
2023-03-22T01:24:27.920Z,5.55
2023-03-22T01:29:30.482Z,5.45
2023-03-22T01:34:31.284Z,5.44
2023-03-22T01:39:32.436Z,5.41
2023-03-22T01:44:35.986Z,5.48
2023-03-22T01:49:39.425Z,5.48
2023-03-22T01:54:44.653Z,5.42
2023-03-22T01:59:59.912Z,5.39
2023-03-22T02:05:22.524Z,5.42
2023-03-22T02:10:26.217Z,5.34
2023-03-22T02:16:15.553Z,5.53
2023-03-22T02:23:42.059Z,5.90
2023-03-22T02:29:48.101Z,6.26
2023-03-22T02:35:49.655Z,6.35
2023-03-22T02:41:32.975Z,6.40
2023-03-22T02:46:47.349Z,6.48
2023-03-22T02:52:07.238Z,6.67
2023-03-22T02:57:35.830Z,6.56
2023-03-22T03:02:41.322Z,6.36
2023-03-22T03:07:51.643Z,6.47
2023-03-22T03:12:53.245Z,6.46
2023-03-22T03:18:10.741Z,6.39
2023-03-22T03:24:11.266Z,6.42
2023-03-22T03:30:53.800Z,6.56
2023-03-22T03:36:02.166Z,6.43
2023-03-22T03:41:08.243Z,6.48
2023-03-22T03:46:09.777Z,6.41
2023-03-22T03:51:10.580Z,6.31
2023-03-22T03:56:11.583Z,6.32
2023-03-22T04:01:18.901Z,6.33
2023-03-22T04:06:26.390Z,6.39
2023-03-22T04:11:29.967Z,6.42
2023-03-22T04:16:33.483Z,6.35
2023-03-22T04:21:34.573Z,6.32
2023-03-22T04:26:36.162Z,6.30
2023-03-22T04:31:55.583Z,6.26
2023-03-22T04:37:08.782Z,6.37
2023-03-22T04:43:18.960Z,6.41
2023-03-22T04:48:27.201Z,6.37
2023-03-22T04:53:29.279Z,6.39
2023-03-22T04:58:37.962Z,6.43
2023-03-22T05:03:39.454Z,6.52
2023-03-22T05:08:41.308Z,6.47
2023-03-22T05:13:42.762Z,6.46
2023-03-22T05:18:44.692Z,6.42
2023-03-22T05:23:46.325Z,6.41
2023-03-22T05:28:48.319Z,6.40
2023-03-22T05:33:54.695Z,6.42
2023-03-22T05:38:57.701Z,6.23
2023-03-22T05:43:59.548Z,6.21
2023-03-22T05:49:01.113Z,6.07
2023-03-22T05:54:02.227Z,6.07
2023-03-22T05:59:10.219Z,6.10
2023-03-22T06:04:11.184Z,6.21
2023-03-22T06:09:23.457Z,6.31
2023-03-22T06:14:25.542Z,6.38
2023-03-22T06:19:54.113Z,6.49
2023-03-22T06:24:56.208Z,6.55
2023-03-22T06:30:07.126Z,6.70
2023-03-22T06:35:15.297Z,6.87
2023-03-22T06:40:16.639Z,6.90
2023-03-22T06:45:21.004Z,6.88
2023-03-22T06:50:22.969Z,7.17
2023-03-22T06:56:54.875Z,7.65
2023-03-22T07:01:56.169Z,7.92
2023-03-22T07:06:57.320Z,8.14
2023-03-22T07:12:00.177Z,8.27
2023-03-22T07:17:01.610Z,8.46
2023-03-22T07:22:03.222Z,8.31
2023-03-22T07:27:07.064Z,8.36
2023-03-22T07:32:08.296Z,8.28
2023-03-22T07:37:26.509Z,8.30
2023-03-22T07:42:27.537Z,8.47
2023-03-22T07:47:44.572Z,8.70
2023-03-22T07:53:42.781Z,8.98
2023-03-22T07:58:43.727Z,9.01
2023-03-22T08:03:44.807Z,8.89
2023-03-22T08:08:56.808Z,8.78
2023-03-22T08:13:57.826Z,8.69
2023-03-22T08:18:59.820Z,8.80
2023-03-22T08:24:02.138Z,8.90
2023-03-22T08:29:23.034Z,9.01
2023-03-22T08:34:23.999Z,9.18
2023-03-22T08:39:26.239Z,9.39
2023-03-22T08:44:41.333Z,9.59
2023-03-22T08:49:42.485Z,9.62
2023-03-22T08:54:52.710Z,9.70
2023-03-22T09:01:45.701Z,9.85
2023-03-22T09:06:46.813Z,9.69
2023-03-22T09:11:48.199Z,9.98
2023-03-22T09:16:49.114Z,10.47
2023-03-22T09:21:50.671Z,10.92
2023-03-22T09:27:01.434Z,10.88
2023-03-22T09:32:02.731Z,11.27
2023-03-22T09:37:06.364Z,11.27
2023-03-22T09:42:35.835Z,11.44
2023-03-22T09:47:45.121Z,11.80
2023-03-22T09:52:47.568Z,12.49
2023-03-22T09:58:54.144Z,11.99
2023-03-22T10:04:21.406Z,11.43
2023-03-22T10:09:32.780Z,11.29
2023-03-22T10:14:39.585Z,11.40
2023-03-22T10:19:54.153Z,11.14
2023-03-22T10:24:56.313Z,10.99
2023-03-22T10:30:07.766Z,11.25
2023-03-22T10:35:15.691Z,11.71
2023-03-22T10:40:26.334Z,12.14
2023-03-22T10:45:28.212Z,12.33
2023-03-22T10:50:33.649Z,12.74
2023-03-22T10:55:43.397Z,12.52
2023-03-22T11:00:58.984Z,12.59
2023-03-22T11:06:12.164Z,12.92
2023-03-22T11:11:25.925Z,13.35
2023-03-22T11:16:28.460Z,13.09
2023-03-22T11:21:32.464Z,13.00
2023-03-22T11:26:38.966Z,13.22
2023-03-22T11:31:57.523Z,13.40
2023-03-22T11:37:07.684Z,13.23
2023-03-22T11:42:18.708Z,13.63
2023-03-22T11:47:19.838Z,13.77
2023-03-22T11:52:26.709Z,13.70
2023-03-22T11:57:30.699Z,13.93
2023-03-22T12:02:41.129Z,13.86
2023-03-22T12:07:42.693Z,14.00
2023-03-22T12:12:58.968Z,13.87
2023-03-22T12:18:08.374Z,13.93
2023-03-22T12:23:19.909Z,13.89
2023-03-22T12:28:27.568Z,14.05
2023-03-22T12:33:32.421Z,13.72
2023-03-22T12:38:50.807Z,13.66
2023-03-22T12:43:54.978Z,13.57
2023-03-22T12:49:04.380Z,13.63
2023-03-22T12:54:06.140Z,13.52
2023-03-22T12:59:19.482Z,13.37
2023-03-22T13:07:54.029Z,13.70
2023-03-22T13:14:58.133Z,13.70
2023-03-22T13:20:23.032Z,13.55
2023-03-22T13:25:29.630Z,13.68
2023-03-22T13:30:49.139Z,13.53
2023-03-22T13:35:58.456Z,13.43
2023-03-22T13:41:27.282Z,13.40
2023-03-22T13:46:51.338Z,13.34
2023-03-22T13:51:53.631Z,13.37
2023-03-22T13:57:01.161Z,13.58
2023-03-22T14:02:39.141Z,13.47
2023-03-22T14:07:51.596Z,13.48
2023-03-22T14:14:33.103Z,13.52
2023-03-22T14:19:35.132Z,13.44
